Time;durP1;ratioP1;P1;durP2;ratioP2;P2;SDS_P1;SDS_P2;PMS_P1;PMS_P2;Temp;Humidity;BMP_temperature;BMP_pressure;BME280_temperature;BME280_humidity;BME280_pressure;Samples;Min_cycle;Max_cycle;Signal;HPM_P1;HPM_P2
2021/03/19 00:00:17;;;;;;;21.13;5.22;;;9.10;70.50;;;;;;4996007;28;20102;-83
2021/03/19 00:02:43;;;;;;;19.23;5.10;;;9.10;71.00;;;;;;4957812;28;20043;-83
2021/03/19 00:05:11;;;;;;;15.40;5.35;;;9.00;71.20;;;;;;4975395;28;20053;-83
2021/03/19 00:07:58;;;;;;;17.58;5.65;;;9.00;71.40;;;;;;4957694;28;20106;-83
2021/03/19 00:10:32;;;;;;;15.15;5.65;;;9.10;71.50;;;;;;4975422;28;20511;-83
2021/03/19 00:13:04;;;;;;;21.90;5.45;;;9.00;71.80;;;;;;4975342;28;20495;-83
2021/03/19 00:15:31;;;;;;;19.65;5.95;;;9.00;71.90;;;;;;4957315;28;20083;-82
2021/03/19 00:17:58;;;;;;;19.30;5.13;;;9.10;72.10;;;;;;4957669;28;20038;-82
2021/03/19 00:20:24;;;;;;;17.25;5.93;;;9.10;72.20;;;;;;4975420;28;20066;-82
2021/03/19 00:22:50;;;;;;;19.65;6.40;;;9.00;72.30;;;;;;4957911;28;20041;-83
2021/03/19 00:25:16;;;;;;;21.00;6.28;;;9.00;72.60;;;;;;4958760;28;20039;-82
2021/03/19 00:27:42;;;;;;;21.77;6.13;;;9.00;72.10;;;;;;4979219;28;20150;-82
2021/03/19 00:30:11;;;;;;;19.23;5.75;;;8.90;71.70;;;;;;4977757;28;20395;-82
2021/03/19 00:32:38;;;;;;;25.27;6.43;;;8.90;72.00;;;;;;4960823;28;20049;-82
2021/03/19 00:35:05;;;;;;;20.52;5.72;;;8.90;72.20;;;;;;4977234;28;20038;-82
2021/03/19 00:37:31;;;;;;;18.98;6.70;;;8.90;72.20;;;;;;4960704;28;20039;-82
2021/03/19 00:39:56;;;;;;;20.92;6.80;;;8.90;72.20;;;;;;4978441;28;20089;-83
2021/03/19 00:42:22;;;;;;;19.80;6.18;;;8.90;72.30;;;;;;4964207;28;20051;-82
2021/03/19 00:44:48;;;;;;;22.80;6.60;;;8.90;72.40;;;;;;4942212;29;20035;-82
2021/03/19 00:47:14;;;;;;;20.52;5.63;;;8.90;72.20;;;;;;4942921;29;20131;-82
2021/03/19 00:49:40;;;;;;;16.33;6.20;;;8.90;72.50;;;;;;4961417;29;20035;-82
2021/03/19 00:52:06;;;;;;;20.50;5.50;;;8.90;72.50;;;;;;4959556;28;20042;-82
2021/03/19 00:54:32;;;;;;;20.35;6.45;;;8.90;72.40;;;;;;4959298;28;20078;-82
2021/03/19 00:56:58;;;;;;;19.08;6.13;;;8.90;72.70;;;;;;4941701;29;20561;-82
2021/03/19 00:59:24;;;;;;;16.83;6.55;;;8.90;72.80;;;;;;4941458;29;20031;-83
2021/03/19 01:01:50;;;;;;;21.08;6.35;;;9.00;73.30;;;;;;4958810;29;20488;-83
2021/03/19 01:04:16;;;;;;;20.45;6.65;;;8.90;73.10;;;;;;4958927;28;20039;-82
2021/03/19 01:06:42;;;;;;;19.13;6.22;;;9.00;73.50;;;;;;4959158;28;20489;-82
2021/03/19 01:09:07;;;;;;;24.65;6.63;;;9.00;73.10;;;;;;4958633;28;20041;-82
2021/03/19 01:11:34;;;;;;;23.42;6.65;;;9.00;73.20;;;;;;4958605;29;20039;-83
2021/03/19 01:14:00;;;;;;;17.33;6.03;;;9.00;73.10;;;;;;4941424;29;20048;-83
2021/03/19 01:16:26;;;;;;;22.35;6.03;;;9.00;73.40;;;;;;4958545;29;20101;-83
2021/03/19 01:18:52;;;;;;;23.38;6.38;;;9.00;73.80;;;;;;4958656;28;20432;-81
2021/03/19 01:21:18;;;;;;;22.52;5.75;;;8.90;74.00;;;;;;4959040;29;20547;-81
2021/03/19 01:23:45;;;;;;;24.90;6.88;;;9.00;74.30;;;;;;4941304;29;20074;-81
2021/03/19 01:26:12;;;;;;;22.50;6.75;;;9.00;74.60;;;;;;4941093;29;20134;-81
2021/03/19 01:28:38;;;;;;;19.83;6.35;;;8.90;74.90;;;;;;4940868;29;20039;-81
2021/03/19 01:31:06;;;;;;;21.90;6.78;;;8.90;74.80;;;;;;4958479;29;20047;-81
2021/03/19 01:33:33;;;;;;;21.65;7.13;;;8.90;75.20;;;;;;4940866;29;20050;-85
2021/03/19 01:36:04;;;;;;;22.13;6.38;;;8.90;75.20;;;;;;4941126;29;20043;-86
2021/03/19 01:38:33;;;;;;;26.55;6.50;;;8.80;75.50;;;;;;4940907;29;20035;-85
2021/03/19 01:40:59;;;;;;;26.05;7.45;;;8.80;75.70;;;;;;4941877;28;20050;-84
2021/03/19 01:43:47;;;;;;;24.35;8.10;;;8.80;76.00;;;;;;4977363;28;20070;-84
2021/03/19 01:46:51;;;;;;;18.65;6.55;;;8.80;76.30;;;;;;4959730;28;20074;-85
2021/03/19 01:49:54;;;;;;;21.35;6.82;;;8.80;76.00;;;;;;4960315;28;20085;-85
2021/03/19 01:52:57;;;;;;;21.90;7.68;;;8.80;75.60;;;;;;4960206;28;20046;-87
2021/03/19 01:56:01;;;;;;;18.88;7.50;;;8.70;77.20;;;;;;4965822;28;20068;-85
2021/03/19 01:59:04;;;;;;;22.55;7.45;;;8.60;79.40;;;;;;4966733;28;20045;-85
2021/03/19 02:02:07;;;;;;;25.48;8.27;;;8.40;79.70;;;;;;4979832;28;20396;-86
2021/03/19 02:05:10;;;;;;;23.60;8.32;;;8.30;81.90;;;;;;4959600;28;20050;-83
2021/03/19 02:08:14;;;;;;;22.02;7.55;;;8.20;84.60;;;;;;4976980;28;20034;-83
2021/03/19 02:11:17;;;;;;;19.48;8.02;;;8.00;85.10;;;;;;4958883;28;20122;-83
2021/03/19 02:14:20;;;;;;;24.00;8.73;;;8.00;85.50;;;;;;4959528;28;20089;-83
2021/03/19 02:17:23;;;;;;;20.65;8.85;;;8.00;85.90;;;;;;4959389;28;20039;-83
2021/03/19 02:20:27;;;;;;;28.77;9.15;;;7.90;86.40;;;;;;4976801;28;20038;-83
2021/03/19 02:23:30;;;;;;;25.38;9.30;;;7.80;88.00;;;;;;4959227;28;20045;-83
2021/03/19 02:26:33;;;;;;;32.60;10.05;;;7.90;89.70;;;;;;4976158;28;20039;-83
2021/03/19 02:29:36;;;;;;;30.40;10.73;;;7.90;90.50;;;;;;4958786;28;20042;-83
2021/03/19 02:32:15;;;;;;;30.75;9.95;;;7.80;90.80;;;;;;4958851;28;20042;-83
2021/03/19 02:34:43;;;;;;;23.88;10.00;;;7.80;90.70;;;;;;4961356;28;20082;-82
2021/03/19 02:37:12;;;;;;;31.15;10.75;;;7.80;90.60;;;;;;4981409;28;20040;-83
2021/03/19 02:39:39;;;;;;;28.52;9.27;;;7.80;90.90;;;;;;4965314;28;20031;-83
2021/03/19 02:42:06;;;;;;;29.23;9.90;;;7.80;90.90;;;;;;4982368;28;20038;-82
2021/03/19 02:44:32;;;;;;;29.10;11.30;;;7.80;90.90;;;;;;4986188;28;20049;-83
2021/03/19 02:46:57;;;;;;;30.23;11.60;;;7.70;91.20;;;;;;4959046;28;20039;-83
2021/03/19 02:49:23;;;;;;;26.88;11.00;;;7.70;91.60;;;;;;4958333;28;20500;-83
2021/03/19 02:51:53;;;;;;;31.85;9.88;;;7.80;91.90;;;;;;4976494;28;20042;-83
2021/03/19 02:54:19;;;;;;;26.85;10.90;;;7.70;92.00;;;;;;4976025;28;20391;-83
2021/03/19 02:56:45;;;;;;;30.88;11.63;;;7.70;92.10;;;;;;4974675;28;20031;-82
2021/03/19 02:59:11;;;;;;;29.40;12.05;;;7.70;92.30;;;;;;4958884;28;20030;-84
2021/03/19 03:01:37;;;;;;;29.48;12.55;;;7.70;92.00;;;;;;4958591;28;20118;-84
2021/03/19 03:04:03;;;;;;;29.23;11.80;;;7.60;92.20;;;;;;4976077;28;20066;-83
2021/03/19 03:06:48;;;;;;;29.65;12.23;;;7.60;92.20;;;;;;4960644;28;20038;-83
2021/03/19 03:09:17;;;;;;;29.02;12.10;;;7.50;92.30;;;;;;4959902;28;20066;-82
2021/03/19 03:11:44;;;;;;;37.72;13.15;;;7.50;92.40;;;;;;4958631;28;20070;-82
2021/03/19 03:14:13;;;;;;;32.35;11.82;;;7.50;92.50;;;;;;4959389;28;20039;-83
2021/03/19 03:16:39;;;;;;;31.27;12.55;;;7.50;92.50;;;;;;4974894;28;20031;-83
2021/03/19 03:19:09;;;;;;;32.58;12.90;;;7.50;92.60;;;;;;4958393;28;20044;-82
2021/03/19 03:21:35;;;;;;;29.40;11.93;;;7.50;92.50;;;;;;4958143;28;20104;-82
2021/03/19 03:24:01;;;;;;;30.10;12.50;;;7.40;92.40;;;;;;4974479;28;20115;-82
2021/03/19 03:26:28;;;;;;;26.10;12.70;;;7.50;92.60;;;;;;4958124;28;20177;-83
2021/03/19 03:28:55;;;;;;;29.08;12.48;;;7.40;92.50;;;;;;4976021;28;20046;-83
2021/03/19 03:31:20;;;;;;;29.35;13.32;;;7.40;92.70;;;;;;4958170;28;20569;-82
2021/03/19 03:33:46;;;;;;;26.27;12.43;;;7.40;92.70;;;;;;4975797;28;20038;-81
2021/03/19 03:36:12;;;;;;;24.75;12.45;;;7.40;92.80;;;;;;4958652;28;20121;-81
2021/03/19 03:38:38;;;;;;;26.88;12.32;;;7.40;92.70;;;;;;4975788;28;20066;-82
2021/03/19 03:41:10;;;;;;;28.40;12.30;;;7.40;92.70;;;;;;4975755;28;20034;-83
2021/03/19 03:43:36;;;;;;;28.08;12.88;;;7.40;92.60;;;;;;4957947;28;20409;-83
2021/03/19 03:46:05;;;;;;;30.17;12.43;;;7.40;92.60;;;;;;4958647;28;20086;-83
2021/03/19 03:48:33;;;;;;;27.00;11.35;;;7.40;92.80;;;;;;4958389;28;20043;-83
2021/03/19 03:51:02;;;;;;;26.63;11.75;;;7.40;92.60;;;;;;4976166;28;20034;-82
2021/03/19 03:53:28;;;;;;;26.02;11.70;;;7.40;92.70;;;;;;4958435;28;20065;-82
2021/03/19 03:55:54;;;;;;;30.00;12.75;;;7.40;92.70;;;;;;4957827;28;20093;-82
2021/03/19 03:58:21;;;;;;;31.90;11.88;;;7.40;92.70;;;;;;4958369;28;20042;-82
2021/03/19 04:00:46;;;;;;;26.85;11.65;;;7.40;92.60;;;;;;4960089;28;20038;-83
2021/03/19 04:03:13;;;;;;;27.63;10.38;;;7.40;92.50;;;;;;4961751;28;20035;-83
2021/03/19 04:05:44;;;;;;;20.60;10.13;;;7.40;92.50;;;;;;4979187;28;20042;-83
2021/03/19 04:08:15;;;;;;;21.85;10.35;;;7.40;92.50;;;;;;4961685;28;20039;-83
2021/03/19 04:10:42;;;;;;;23.50;10.75;;;7.40;92.40;;;;;;4979459;28;20117;-82
2021/03/19 04:13:09;;;;;;;23.05;11.23;;;7.40;92.60;;;;;;4961442;28;20074;-82
2021/03/19 04:15:35;;;;;;;27.00;10.05;;;7.40;92.60;;;;;;4961711;28;20039;-82
2021/03/19 04:18:05;;;;;;;22.65;11.18;;;7.40;92.60;;;;;;4978901;28;20384;-83
2021/03/19 04:20:32;;;;;;;25.33;10.95;;;7.40;92.80;;;;;;4979435;28;20510;-83
2021/03/19 04:22:58;;;;;;;24.73;11.18;;;7.40;92.60;;;;;;4979083;28;20071;-83
2021/03/19 04:25:24;;;;;;;24.65;11.30;;;7.40;92.60;;;;;;4961271;28;20043;-82
2021/03/19 04:28:02;;;;;;;25.98;11.27;;;7.40;92.70;;;;;;4961664;28;20475;-83
2021/03/19 04:30:36;;;;;;;24.65;10.80;;;7.40;92.60;;;;;;4961327;28;20066;-82
2021/03/19 04:33:02;;;;;;;18.00;10.18;;;7.40;92.60;;;;;;4960975;28;20034;-83
2021/03/19 04:35:30;;;;;;;23.02;11.73;;;7.40;92.60;;;;;;4978754;28;20137;-82
2021/03/19 04:37:59;;;;;;;23.23;12.13;;;7.30;92.80;;;;;;4961145;28;20122;-83
2021/03/19 04:40:27;;;;;;;27.00;12.82;;;7.40;92.90;;;;;;4980547;28;20043;-83
2021/03/19 04:42:56;;;;;;;26.00;12.20;;;7.40;93.10;;;;;;4978459;28;20158;-84
2021/03/19 04:45:23;;;;;;;24.73;12.63;;;7.40;93.10;;;;;;4977438;28;20042;-84
2021/03/19 04:47:49;;;;;;;22.88;11.82;;;7.40;93.20;;;;;;4961123;28;20066;-84
2021/03/19 04:50:16;;;;;;;28.48;11.20;;;7.40;93.20;;;;;;4978953;28;20043;-84
2021/03/19 04:52:42;;;;;;;27.30;12.10;;;7.50;93.20;;;;;;4978188;28;20133;-84
2021/03/19 04:55:09;;;;;;;30.17;13.43;;;7.40;93.10;;;;;;4960733;28;20488;-84
2021/03/19 04:57:35;;;;;;;32.33;14.18;;;7.40;93.30;;;;;;4960726;28;20047;-84
2021/03/19 05:00:02;;;;;;;27.65;12.90;;;7.50;93.50;;;;;;4961077;28;20042;-83
2021/03/19 05:02:35;;;;;;;30.27;14.02;;;7.50;93.60;;;;;;4960832;28;20045;-84
2021/03/19 05:05:02;;;;;;;33.28;12.73;;;7.50;93.60;;;;;;4961518;28;20042;-84
2021/03/19 05:07:28;;;;;;;29.63;13.85;;;7.50;93.40;;;;;;4961405;28;20039;-84
2021/03/19 05:09:53;;;;;;;30.48;13.77;;;7.60;93.40;;;;;;4960171;28;20042;-85
2021/03/19 05:12:20;;;;;;;26.73;13.73;;;7.50;93.40;;;;;;4960213;28;20038;-84
2021/03/19 05:14:46;;;;;;;25.85;13.93;;;7.60;93.50;;;;;;4960460;28;20038;-85
2021/03/19 05:17:12;;;;;;;33.67;13.40;;;7.60;93.60;;;;;;4977966;28;20108;-86
2021/03/19 05:19:38;;;;;;;30.30;13.70;;;7.60;93.60;;;;;;4977888;28;20030;-85
2021/03/19 05:22:04;;;;;;;25.98;13.25;;;7.70;93.70;;;;;;4960151;28;20061;-84
2021/03/19 05:24:30;;;;;;;31.20;14.45;;;7.70;93.60;;;;;;4961064;28;20471;-84
2021/03/19 05:26:56;;;;;;;33.08;13.55;;;7.70;93.60;;;;;;4980128;28;20042;-84
2021/03/19 05:29:21;;;;;;;34.90;13.85;;;7.70;93.80;;;;;;4964521;28;20566;-84
2021/03/19 05:31:48;;;;;;;27.90;13.63;;;7.70;93.80;;;;;;4964462;28;20133;-83
2021/03/19 05:34:14;;;;;;;30.85;14.38;;;7.80;93.70;;;;;;4960446;28;20047;-84
2021/03/19 05:36:39;;;;;;;28.10;14.65;;;7.80;93.80;;;;;;4959749;28;20038;-84
2021/03/19 05:39:07;;;;;;;25.25;13.77;;;7.90;93.90;;;;;;4960092;28;20085;-83
2021/03/19 05:41:36;;;;;;;26.67;14.15;;;7.90;93.80;;;;;;4959206;28;20068;-84
2021/03/19 05:44:12;;;;;;;30.55;14.10;;;7.90;93.80;;;;;;4977169;28;20046;-84
2021/03/19 05:46:47;;;;;;;22.08;13.93;;;8.00;93.90;;;;;;4977763;28;20039;-84
2021/03/19 05:49:17;;;;;;;30.13;15.43;;;8.00;93.90;;;;;;4959977;28;20042;-85
2021/03/19 05:51:58;;;;;;;26.15;14.48;;;8.00;94.00;;;;;;4960476;28;20038;-85
2021/03/19 05:54:36;;;;;;;25.50;13.90;;;8.00;94.10;;;;;;4977078;28;20046;-85
2021/03/19 05:57:07;;;;;;;27.27;15.48;;;8.10;94.20;;;;;;4977092;28;20034;-86
2021/03/19 05:59:43;;;;;;;26.83;13.57;;;8.00;94.10;;;;;;4976738;28;20204;-86
2021/03/19 06:02:38;;;;;;;21.70;12.55;;;8.10;94.30;;;;;;4959354;28;20109;-84
2021/03/19 06:05:29;;;;;;;22.85;13.93;;;8.10;94.10;;;;;;4959331;28;20042;-85
2021/03/19 06:07:58;;;;;;;21.10;13.23;;;8.10;94.20;;;;;;4959767;28;20129;-86
2021/03/19 06:10:33;;;;;;;20.63;12.57;;;8.10;94.30;;;;;;4959011;28;20049;-86
2021/03/19 06:13:05;;;;;;;15.40;11.38;;;8.10;94.20;;;;;;4959018;28;20035;-86
2021/03/19 06:15:44;;;;;;;20.98;12.73;;;8.10;94.30;;;;;;4959076;28;20043;-86
2021/03/19 06:18:49;;;;;;;20.90;12.55;;;8.10;94.30;;;;;;4977080;28;20082;-85
2021/03/19 06:21:30;;;;;;;19.27;12.98;;;8.10;94.30;;;;;;4967038;28;20058;-82
2021/03/19 06:24:21;;;;;;;20.75;14.40;;;8.10;94.40;;;;;;4973346;28;20034;-82
2021/03/19 06:26:47;;;;;;;27.38;14.57;;;8.10;94.50;;;;;;4976932;28;20042;-82
2021/03/19 06:29:33;;;;;;;22.70;15.60;;;8.00;94.60;;;;;;4964892;29;20038;-82
2021/03/19 06:32:13;;;;;;;26.23;14.95;;;8.10;94.80;;;;;;4962291;29;20078;-82
2021/03/19 06:35:08;;;;;;;25.30;14.32;;;8.10;94.90;;;;;;4939568;29;20106;-81
2021/03/19 06:37:42;;;;;;;22.25;15.52;;;8.10;94.80;;;;;;4949247;28;20047;-81
2021/03/19 06:40:32;;;;;;;24.27;16.40;;;8.20;94.80;;;;;;4955866;29;20072;-81
2021/03/19 06:43:13;;;;;;;23.83;16.17;;;8.20;94.80;;;;;;4957236;28;20055;-81
2021/03/19 06:45:39;;;;;;;27.75;17.45;;;8.20;94.90;;;;;;4955814;29;20042;-82
2021/03/19 06:48:25;;;;;;;30.23;17.55;;;8.20;95.00;;;;;;4939839;29;20101;-82
2021/03/19 06:50:51;;;;;;;28.98;16.70;;;8.20;94.90;;;;;;4957907;29;20035;-83
2021/03/19 06:53:24;;;;;;;27.77;16.65;;;8.20;94.80;;;;;;4957227;29;20081;-85
2021/03/19 06:55:54;;;;;;;24.60;16.02;;;8.20;94.70;;;;;;4955841;29;20063;-82
2021/03/19 06:58:50;;;;;;;30.80;17.35;;;8.20;94.70;;;;;;4957060;29;20110;-86
2021/03/19 07:01:32;;;;;;;29.90;17.73;;;8.30;94.70;;;;;;4931392;29;20043;-85
2021/03/19 07:04:35;;;;;;;31.08;17.45;;;8.20;94.80;;;;;;4956840;29;20500;-85
2021/03/19 07:07:13;;;;;;;27.88;17.70;;;8.20;94.60;;;;;;4939643;29;20042;-85
2021/03/19 07:10:28;;;;;;;27.33;16.80;;;8.20;94.70;;;;;;4956396;29;20121;-84
2021/03/19 07:13:19;;;;;;;27.07;17.00;;;8.30;94.80;;;;;;4917155;29;20506;-84
2021/03/19 07:15:51;;;;;;;26.92;17.13;;;8.30;94.70;;;;;;4954978;29;20070;-82
2021/03/19 07:18:42;;;;;;;26.25;17.30;;;8.30;94.60;;;;;;4955214;29;20126;-83
2021/03/19 07:21:14;;;;;;;27.70;17.17;;;8.40;94.70;;;;;;4956314;29;20031;-82
2021/03/19 07:23:56;;;;;;;27.63;15.90;;;8.40;94.70;;;;;;4942862;29;20074;-83
2021/03/19 07:26:31;;;;;;;24.45;15.10;;;8.40;94.40;;;;;;4943202;29;20031;-83
2021/03/19 07:29:35;;;;;;;22.45;16.00;;;8.40;94.30;;;;;;4972108;29;20043;-83
2021/03/19 07:32:30;;;;;;;26.50;15.90;;;8.40;94.40;;;;;;4947913;29;20047;-84
2021/03/19 07:35:25;;;;;;;22.05;14.98;;;8.40;94.30;;;;;;4959555;28;20095;-83
2021/03/19 07:38:13;;;;;;;24.52;14.27;;;8.40;94.20;;;;;;4945964;29;20031;-82
2021/03/19 07:41:14;;;;;;;20.63;14.57;;;8.60;94.30;;;;;;4943495;29;20039;-82
2021/03/19 07:43:49;;;;;;;23.58;15.57;;;8.60;94.10;;;;;;4951832;29;20051;-82
2021/03/19 07:46:40;;;;;;;21.00;12.57;;;8.60;93.70;;;;;;4961732;29;20068;-82
2021/03/19 07:49:36;;;;;;;19.23;13.48;;;8.60;93.60;;;;;;4959011;29;20051;-82
2021/03/19 07:52:20;;;;;;;24.55;13.45;;;8.70;93.50;;;;;;4946365;29;20039;-82
2021/03/19 07:54:55;;;;;;;19.20;12.32;;;8.70;93.30;;;;;;4962767;29;20047;-83
2021/03/19 07:57:45;;;;;;;19.73;13.07;;;8.70;93.20;;;;;;4959904;29;20396;-82
2021/03/19 08:00:22;;;;;;;17.30;12.32;;;8.70;93.30;;;;;;4959381;29;20039;-82
2021/03/19 08:03:12;;;;;;;25.98;13.90;;;8.80;93.10;;;;;;4960599;29;20113;-82
2021/03/19 08:05:47;;;;;;;15.20;11.95;;;8.80;93.20;;;;;;4960461;29;20054;-82
2021/03/19 08:08:13;;;;;;;16.17;11.20;;;8.90;92.50;;;;;;4958301;29;20043;-82
2021/03/19 08:11:16;;;;;;;19.45;10.85;;;9.00;92.10;;;;;;4958670;29;20047;-82
2021/03/19 08:13:56;;;;;;;14.18;10.25;;;9.10;92.20;;;;;;4959899;29;20140;-82
2021/03/19 08:16:51;;;;;;;16.55;10.57;;;9.30;91.70;;;;;;4959699;29;20043;-82
2021/03/19 08:19:27;;;;;;;14.27;10.35;;;9.30;91.50;;;;;;4958830;29;20042;-82
2021/03/19 08:22:15;;;;;;;13.68;9.48;;;9.30;91.40;;;;;;4959977;29;20423;-82
2021/03/19 08:24:51;;;;;;;13.20;9.00;;;9.40;91.30;;;;;;4941758;29;20098;-82
2021/03/19 08:27:26;;;;;;;12.57;10.10;;;9.50;90.90;;;;;;4962456;29;20066;-81
2021/03/19 08:30:12;;;;;;;14.38;9.00;;;9.30;91.20;;;;;;4958508;29;20046;-83
2021/03/19 08:32:58;;;;;;;24.52;9.45;;;9.30;90.90;;;;;;4941996;29;20395;-81
2021/03/19 08:36:11;;;;;;;12.35;8.20;;;9.20;91.10;;;;;;4957842;29;20464;-81
2021/03/19 08:38:44;;;;;;;9.00;7.68;;;9.30;90.20;;;;;;4959416;29;20098;-81
2021/03/19 08:41:20;;;;;;;8.68;7.20;;;9.30;89.70;;;;;;4962384;28;20396;-83
2021/03/19 08:43:53;;;;;;;12.45;8.45;;;9.30;89.90;;;;;;4978456;28;20031;-81
2021/03/19 08:46:34;;;;;;;8.05;6.75;;;9.30;90.10;;;;;;4982843;28;20053;-80
2021/03/19 08:49:05;;;;;;;11.45;6.68;;;9.30;89.40;;;;;;4980810;28;20041;-83
2021/03/19 08:51:31;;;;;;;8.25;6.47;;;9.20;89.40;;;;;;4997483;28;20038;-80
2021/03/19 08:54:15;;;;;;;11.73;7.40;;;9.20;89.10;;;;;;4993563;28;20034;-81
2021/03/19 08:56:46;;;;;;;9.32;5.85;;;9.20;89.60;;;;;;4983839;28;20063;-81
2021/03/19 08:59:35;;;;;;;11.30;6.70;;;9.20;88.60;;;;;;4982845;28;20035;-81
2021/03/19 09:02:24;;;;;;;6.97;5.35;;;9.10;88.90;;;;;;4979270;28;20068;-82
2021/03/19 09:04:52;;;;;;;7.10;5.00;;;9.00;88.50;;;;;;4950941;28;20039;-80
2021/03/19 09:07:31;;;;;;;5.85;5.05;;;9.00;88.40;;;;;;4960908;28;20435;-81
2021/03/19 09:10:32;;;;;;;5.57;4.65;;;9.00;88.50;;;;;;4977754;28;20043;-81
2021/03/19 09:12:58;;;;;;;5.20;4.50;;;8.90;87.80;;;;;;4977384;28;20129;-81
2021/03/19 09:15:34;;;;;;;6.07;3.53;;;8.90;87.60;;;;;;4960451;28;20634;-81
2021/03/19 09:18:11;;;;;;;7.32;5.15;;;8.90;84.70;;;;;;4976178;28;20211;-81
2021/03/19 09:20:37;;;;;;;10.43;4.30;;;9.00;85.80;;;;;;4960471;28;20041;-81
2021/03/19 09:23:12;;;;;;;7.72;4.07;;;9.10;85.40;;;;;;4977480;28;20407;-81
2021/03/19 09:26:05;;;;;;;6.00;4.00;;;9.20;84.00;;;;;;4977833;28;20039;-81
2021/03/19 09:28:37;;;;;;;5.07;3.88;;;9.30;82.20;;;;;;4977674;28;20100;-81
2021/03/19 09:31:29;;;;;;;5.15;4.15;;;9.40;81.30;;;;;;4959716;28;20034;-81
2021/03/19 09:34:00;;;;;;;8.00;4.43;;;9.60;80.00;;;;;;4977597;28;20145;-81
2021/03/19 09:37:20;;;;;;;5.07;3.80;;;9.50;81.10;;;;;;4975794;28;20047;-81
2021/03/19 09:39:46;;;;;;;7.72;4.80;;;9.40;80.30;;;;;;4932990;29;20039;-81
2021/03/19 09:42:18;;;;;;;5.07;3.53;;;9.30;81.80;;;;;;4963226;28;20531;-81
2021/03/19 09:44:49;;;;;;;5.53;2.88;;;9.20;79.70;;;;;;4959462;28;20046;-81
2021/03/19 09:47:18;;;;;;;2.50;1.80;;;9.20;79.10;;;;;;4977103;28;20035;-81
2021/03/19 09:49:44;;;;;;;4.00;1.98;;;9.20;76.60;;;;;;4976821;28;20054;-81
2021/03/19 09:52:14;;;;;;;4.18;1.70;;;9.20;76.90;;;;;;4977274;28;20146;-81
2021/03/19 09:54:42;;;;;;;4.15;1.60;;;9.30;75.90;;;;;;4959330;28;20043;-81
2021/03/19 09:57:24;;;;;;;3.47;1.65;;;9.70;73.80;;;;;;4976276;28;20043;-81
2021/03/19 10:00:21;;;;;;;3.80;1.95;;;10.40;72.30;;;;;;4976882;28;20066;-81
2021/03/19 10:02:47;;;;;;;2.70;1.40;;;10.60;68.80;;;;;;4991470;28;20114;-81
2021/03/19 10:05:20;;;;;;;3.95;1.88;;;10.40;68.70;;;;;;4977168;28;20043;-81
2021/03/19 10:07:57;;;;;;;3.22;1.63;;;10.30;69.40;;;;;;4975848;28;20101;-82
2021/03/19 10:10:33;;;;;;;4.63;1.60;;;10.20;67.50;;;;;;4961139;28;20043;-80
2021/03/19 10:13:20;;;;;;;4.97;2.10;;;10.20;66.70;;;;;;4977958;28;20133;-81
2021/03/19 10:15:49;;;;;;;2.50;1.65;;;10.50;65.30;;;;;;4978278;28;20543;-80
2021/03/19 10:18:35;;;;;;;2.53;1.83;;;10.40;64.70;;;;;;4978233;28;20066;-80
2021/03/19 10:21:06;;;;;;;5.53;1.83;;;10.30;66.00;;;;;;4974872;28;20038;-81
2021/03/19 10:23:41;;;;;;;3.22;1.75;;;10.40;65.60;;;;;;4974483;28;20088;-81
2021/03/19 10:26:34;;;;;;;5.68;2.10;;;10.60;66.70;;;;;;4974008;28;20404;-81
2021/03/19 10:29:03;;;;;;;5.68;1.98;;;10.80;66.60;;;;;;4974654;28;20153;-81
2021/03/19 10:31:29;;;;;;;9.18;2.92;;;10.80;66.90;;;;;;4959008;28;20048;-81
2021/03/19 10:34:05;;;;;;;3.65;1.67;;;11.00;65.50;;;;;;4975019;28;20093;-81
2021/03/19 10:36:47;;;;;;;3.10;1.80;;;11.20;62.50;;;;;;4973962;28;20054;-81
2021/03/19 10:39:35;;;;;;;2.78;1.90;;;11.00;62.80;;;;;;4976163;28;20042;-81
2021/03/19 10:42:29;;;;;;;3.38;1.80;;;11.00;63.70;;;;;;4965685;28;20043;-81
2021/03/19 10:45:06;;;;;;;4.50;1.83;;;10.90;63.60;;;;;;4955433;29;20142;-81
2021/03/19 10:47:53;;;;;;;6.20;3.10;;;11.00;61.40;;;;;;4939266;29;20054;-81
2021/03/19 10:50:35;;;;;;;10.90;5.43;;;10.90;60.00;;;;;;4956522;29;20562;-83
2021/03/19 10:53:17;;;;;;;9.75;5.65;;;11.00;58.20;;;;;;4956851;29;20050;-83
2021/03/19 10:55:47;;;;;;;6.70;1.98;;;11.10;54.80;;;;;;4955018;29;20510;-82
2021/03/19 10:58:22;;;;;;;4.25;2.80;;;11.10;55.20;;;;;;4938920;29;20476;-82
2021/03/19 11:00:50;;;;;;;6.10;2.70;;;11.10;54.30;;;;;;4955445;29;20039;-82
2021/03/19 11:03:33;;;;;;;12.88;4.60;;;11.10;55.20;;;;;;4954975;29;20035;-81
2021/03/19 11:06:02;;;;;;;9.43;4.03;;;11.20;55.20;;;;;;4955232;29;20035;-82
2021/03/19 11:08:28;;;;;;;8.55;1.88;;;11.50;54.90;;;;;;4938706;29;20150;-84
2021/03/19 11:10:54;;;;;;;13.73;2.85;;;11.30;55.00;;;;;;4954543;29;20158;-81
2021/03/19 11:13:22;;;;;;;11.32;2.03;;;11.20;56.10;;;;;;4956598;29;20039;-81
2021/03/19 11:15:50;;;;;;;10.00;2.28;;;11.70;55.90;;;;;;4958109;29;20054;-82
2021/03/19 11:18:33;;;;;;;5.53;2.13;;;12.10;54.90;;;;;;4957676;29;20035;-82
2021/03/19 11:21:08;;;;;;;4.85;2.20;;;12.00;53.80;;;;;;4955260;29;20035;-81
2021/03/19 11:23:35;;;;;;;16.95;4.32;;;11.50;55.40;;;;;;4954961;29;20065;-83
2021/03/19 11:26:13;;;;;;;5.53;2.45;;;11.70;54.70;;;;;;4938593;29;20042;-81
2021/03/19 11:28:43;;;;;;;3.58;2.40;;;12.10;53.00;;;;;;4954495;29;20135;-81
2021/03/19 11:31:29;;;;;;;14.95;3.30;;;12.50;52.20;;;;;;4954345;29;20118;-83
2021/03/19 11:34:04;;;;;;;5.97;2.00;;;12.40;52.70;;;;;;4954523;29;20040;-81
2021/03/19 11:36:56;;;;;;;3.13;1.80;;;11.50;54.20;;;;;;4937817;29;20050;-81
2021/03/19 11:39:32;;;;;;;4.30;2.10;;;10.90;55.70;;;;;;4962799;29;20063;-80
2021/03/19 11:41:57;;;;;;;13.15;5.32;;;10.60;56.70;;;;;;4952924;28;20134;-81
2021/03/19 11:44:23;;;;;;;8.38;4.00;;;10.60;57.30;;;;;;4957754;28;20483;-80
2021/03/19 11:46:49;;;;;;;3.40;2.55;;;10.90;56.50;;;;;;4957699;28;20117;-80
2021/03/19 11:49:16;;;;;;;6.15;2.92;;;11.20;54.90;;;;;;4975028;28;20034;-77
2021/03/19 11:51:42;;;;;;;5.78;2.67;;;11.40;55.20;;;;;;4975171;28;20049;-82
2021/03/19 11:54:09;;;;;;;5.78;2.58;;;11.60;54.50;;;;;;4959073;28;20074;-81
2021/03/19 11:56:37;;;;;;;7.53;3.90;;;11.40;54.90;;;;;;4957783;28;20050;-83
2021/03/19 11:59:03;;;;;;;9.63;3.00;;;11.50;53.00;;;;;;4957859;28;20130;-83
2021/03/19 12:01:31;;;;;;;9.35;4.65;;;11.80;52.60;;;;;;4958204;28;20102;-85
2021/03/19 12:03:58;;;;;;;3.13;1.83;;;12.00;52.00;;;;;;4957646;28;20031;-85
2021/03/19 12:06:29;;;;;;;3.72;2.20;;;11.70;52.50;;;;;;4957608;28;20039;-85
2021/03/19 12:08:55;;;;;;;5.13;2.25;;;11.40;54.10;;;;;;4957756;28;20377;-83
2021/03/19 12:11:30;;;;;;;3.80;2.10;;;11.50;54.30;;;;;;4956921;28;20082;-82
2021/03/19 12:13:57;;;;;;;3.30;2.03;;;11.60;55.10;;;;;;4974924;28;20045;-82
2021/03/19 12:16:24;;;;;;;3.88;2.20;;;11.60;53.90;;;;;;4977964;28;20102;-81
2021/03/19 12:18:51;;;;;;;7.55;3.03;;;11.50;53.30;;;;;;4965928;28;20199;-84
2021/03/19 12:21:17;;;;;;;4.72;2.10;;;11.20;54.80;;;;;;5010236;28;20076;-83
2021/03/19 12:23:43;;;;;;;3.58;2.08;;;11.10;54.40;;;;;;5008613;28;20503;-82
2021/03/19 12:26:09;;;;;;;9.13;4.43;;;11.20;54.70;;;;;;4984393;28;20037;-82
2021/03/19 12:28:35;;;;;;;9.75;3.67;;;11.60;52.60;;;;;;4997839;28;20042;-83
2021/03/19 12:31:01;;;;;;;7.68;3.08;;;11.90;51.30;;;;;;4978896;28;20034;-84
2021/03/19 12:33:32;;;;;;;3.95;2.20;;;12.20;50.90;;;;;;4997195;28;20487;-83
2021/03/19 12:35:58;;;;;;;3.28;1.85;;;12.30;50.30;;;;;;4997018;28;20499;-82
2021/03/19 12:38:24;;;;;;;5.78;2.40;;;12.20;49.80;;;;;;4979657;28;20137;-81
2021/03/19 12:40:50;;;;;;;6.50;3.60;;;12.20;49.20;;;;;;4996243;28;20027;-82
2021/03/19 12:43:17;;;;;;;9.82;4.32;;;12.10;48.50;;;;;;4979309;28;20061;-88
2021/03/19 12:45:43;;;;;;;5.88;3.08;;;12.10;49.60;;;;;;4981590;28;20060;-81
2021/03/19 12:48:09;;;;;;;8.32;3.70;;;12.20;49.10;;;;;;4979529;28;20133;-84
2021/03/19 12:50:36;;;;;;;6.43;2.53;;;12.40;48.60;;;;;;4997012;28;20077;-85
2021/03/19 12:53:04;;;;;;;14.68;3.58;;;12.60;47.60;;;;;;4997871;28;20045;-85
2021/03/19 12:55:32;;;;;;;3.97;2.40;;;12.90;47.20;;;;;;4989240;28;20241;-86
2021/03/19 12:57:58;;;;;;;8.63;3.38;;;12.80;48.50;;;;;;4970942;28;20150;-83
2021/03/19 13:00:26;;;;;;;15.23;3.42;;;12.90;48.90;;;;;;4996593;28;20530;-82
2021/03/19 13:02:52;;;;;;;7.68;2.75;;;13.00;49.20;;;;;;4994476;28;20372;-82
2021/03/19 13:05:20;;;;;;;14.48;3.80;;;12.90;49.90;;;;;;4976733;28;20165;-83
2021/03/19 13:07:46;;;;;;;4.82;3.17;;;12.20;51.30;;;;;;4976538;28;20039;-81
2021/03/19 13:10:13;;;;;;;4.32;2.65;;;11.80;53.00;;;;;;4976559;28;20089;-82
2021/03/19 13:12:39;;;;;;;5.95;2.72;;;11.90;53.40;;;;;;4977867;28;20157;-81
2021/03/19 13:15:09;;;;;;;7.47;2.80;;;12.10;51.90;;;;;;4975520;28;20070;-81
2021/03/19 13:17:41;;;;;;;6.00;3.05;;;12.40;50.50;;;;;;4975015;28;20130;-80
2021/03/19 13:20:09;;;;;;;4.93;2.67;;;12.60;49.10;;;;;;4958460;28;20427;-82